首页
METAR-TAF:

METAR-TAF

机场 :

比利·畢曉普多倫多市機場

多伦多 City Centre, 安大略省, 加拿大

纬度: 43-38N, 经度: 079-24W, 海拔: 77米

当前天气观测

该预报发布于23分钟前的15:00 UTC
风速9节,风向
温度 15°C
湿度 77%
气压 1016 hPa
能見度: 14.5公里
散云层高于7500英尺
阴天层高于9400英尺

METAR: CYTZ 171500Z AUTO 08009KT 9SM SCT075 OVC094 15/11 A3001 RMK SLP166

时间: 11:23 (15:23 UTC)

预报

该预报发布于1小时和45分钟前的13:38 UTC
预报有效从17日的 14点(UTC)到 18日的 14点(UTC)
风速8节,风向
能見度: 10公里
多云层高于8000英尺
多云层高于13000英尺
从 17日的 1800点(UTC)
风速8节,风向东转东南
能見度: 10公里
散云层高于7000英尺
成为
从 17日的 23点(UTC)到 18日的 01点(UTC)
风速3节,风向多变
从 18日的 1300点(UTC)
风速6节,风向
能見度: 10公里
散云层高于22000英尺

TAF: CYTZ 171338Z 1714/1814 09008KT P6SM BKN080 BKN130 FM171800 12008KT P6SM SCT070 BECMG 1723/1801 VRB03KT FM181300 10006KT P6SM SCT220 RMK FCST BASED ON AUTO OBS. NXT FCST BY 172000Z

超过4000个机场的气象观测和天气预报(METAR&TAF报告)。

可查询的气象台以黄色和红色小点在地图上表示。

将鼠标移到小点上方,可查看气象台名称。

然后点击查看天气观测和预报。

如需切换地图:点击带黑十字的绿色按钮放大地图;点击带横线的绿色按钮缩小地图;或者点击绿色箭头查看邻近地区的地图。


METAR-TAF: